sensor_id;sensor_type;location;lat;lon;timestamp;temperature;humidity
50804;DHT22;37205;51.434;6.756;2023-07-30T15:11:44;23.40;99.90
50804;DHT22;37205;51.434;6.756;2023-07-30T15:14:09;23.70;1.00
50804;DHT22;37205;51.434;6.756;2023-07-30T15:16:35;24.60;99.90
50804;DHT22;37205;51.434;6.756;2023-07-30T15:19:00;24.90;99.90
50804;DHT22;37205;51.434;6.756;2023-07-30T15:21:26;24.90;99.90
50804;DHT22;37205;51.434;6.756;2023-07-30T15:23:53;24.80;99.90
50804;DHT22;37205;51.434;6.756;2023-07-30T15:26:19;24.60;99.90
50804;DHT22;37205;51.434;6.756;2023-07-30T15:28:46;24.70;99.90
50804;DHT22;37205;51.434;6.756;2023-07-30T15:31:12;24.80;99.90
50804;DHT22;37205;51.434;6.756;2023-07-30T15:33:38;24.60;99.90
50804;DHT22;37205;51.434;6.756;2023-07-30T15:36:04;24.30;99.90
50804;DHT22;37205;51.434;6.756;2023-07-30T15:38:31;24.20;99.90
50804;DHT22;37205;51.434;6.756;2023-07-30T15:40:57;24.00;99.90
50804;DHT22;37205;51.434;6.756;2023-07-30T15:43:22;23.80;99.90
50804;DHT22;37205;51.434;6.756;2023-07-30T15:45:48;23.90;99.90
50804;DHT22;37205;51.434;6.756;2023-07-30T15:48:13;23.70;99.90
50804;DHT22;37205;51.434;6.756;2023-07-30T15:50:39;23.40;99.90
50804;DHT22;37205;51.434;6.756;2023-07-30T15:53:05;23.30;1.00
50804;DHT22;37205;51.434;6.756;2023-07-30T15:55:32;23.40;1.00
50804;DHT22;37205;51.434;6.756;2023-07-30T15:57:58;23.30;1.00
50804;DHT22;37205;51.434;6.756;2023-07-30T16:00:25;23.40;99.90
50804;DHT22;37205;51.434;6.756;2023-07-30T16:02:50;23.50;1.00
50804;DHT22;37205;51.434;6.756;2023-07-30T16:05:16;23.70;99.90
50804;DHT22;37205;51.434;6.756;2023-07-30T16:07:42;23.70;99.90
50804;DHT22;37205;51.434;6.756;2023-07-30T16:10:08;23.60;99.90
50804;DHT22;37205;51.434;6.756;2023-07-30T16:12:34;23.50;99.90
50804;DHT22;37205;51.434;6.756;2023-07-30T16:14:59;23.50;99.90
50804;DHT22;37205;51.434;6.756;2023-07-30T16:17:27;23.60;99.90
50804;DHT22;37205;51.434;6.756;2023-07-30T16:19:52;23.50;99.90
50804;DHT22;37205;51.434;6.756;2023-07-30T16:22:18;23.50;99.90
50804;DHT22;37205;51.434;6.756;2023-07-30T16:24:43;23.40;99.90
50804;DHT22;37205;51.434;6.756;2023-07-30T16:27:09;23.50;99.90
50804;DHT22;37205;51.434;6.756;2023-07-30T16:29:36;23.50;99.90
50804;DHT22;37205;51.434;6.756;2023-07-30T16:32:02;23.50;99.90
50804;DHT22;37205;51.434;6.756;2023-07-30T16:34:28;23.30;99.90
50804;DHT22;37205;51.434;6.756;2023-07-30T16:36:53;23.30;99.90
50804;DHT22;37205;51.434;6.756;2023-07-30T16:39:19;23.30;99.90
50804;DHT22;37205;51.434;6.756;2023-07-30T16:41:44;23.40;99.90
50804;DHT22;37205;51.434;6.756;2023-07-30T16:44:10;23.40;99.90
50804;DHT22;37205;51.434;6.756;2023-07-30T16:46:36;23.40;99.90
50804;DHT22;37205;51.434;6.756;2023-07-30T16:49:01;23.40;99.90
50804;DHT22;37205;51.434;6.756;2023-07-30T16:51:27;23.30;99.90
50804;DHT22;37205;51.434;6.756;2023-07-30T16:53:53;23.40;99.90
50804;DHT22;37205;51.434;6.756;2023-07-30T16:56:18;23.50;99.90
50804;DHT22;37205;51.434;6.756;2023-07-30T16:58:44;23.50;96.40
50804;DHT22;37205;51.434;6.756;2023-07-30T17:01:10;23.50;96.90
50804;DHT22;37205;51.434;6.756;2023-07-30T17:03:37;23.40;82.30
50804;DHT22;37205;51.434;6.756;2023-07-30T17:06:03;23.40;96.40
50804;DHT22;37205;51.434;6.756;2023-07-30T17:08:29;23.50;99.90
50804;DHT22;37205;51.434;6.756;2023-07-30T17:10:55;23.60;99.90
50804;DHT22;37205;51.434;6.756;2023-07-30T17:13:22;23.50;49.20
50804;DHT22;37205;51.434;6.756;2023-07-30T17:15:47;23.40;85.30
50804;DHT22;37205;51.434;6.756;2023-07-30T17:18:13;23.30;99.90
50804;DHT22;37205;51.434;6.756;2023-07-30T17:20:42;23.20;99.90
50804;DHT22;37205;51.434;6.756;2023-07-30T17:23:08;23.10;99.90
50804;DHT22;37205;51.434;6.756;2023-07-30T17:25:34;22.90;99.90
50804;DHT22;37205;51.434;6.756;2023-07-30T17:28:00;22.80;99.90
50804;DHT22;37205;51.434;6.756;2023-07-30T17:30:26;22.70;99.90
50804;DHT22;37205;51.434;6.756;2023-07-30T17:32:51;22.60;99.90
50804;DHT22;37205;51.434;6.756;2023-07-30T17:35:17;22.50;99.90
50804;DHT22;37205;51.434;6.756;2023-07-30T17:37:43;22.40;99.90
50804;DHT22;37205;51.434;6.756;2023-07-30T17:40:09;22.20;99.90
50804;DHT22;37205;51.434;6.756;2023-07-30T17:42:36;22.10;81.30
50804;DHT22;37205;51.434;6.756;2023-07-30T17:45:02;21.90;94.40
50804;DHT22;37205;51.434;6.756;2023-07-30T17:47:28;21.80;94.50
50804;DHT22;37205;51.434;6.756;2023-07-30T17:49:55;21.70;99.90
50804;DHT22;37205;51.434;6.756;2023-07-30T17:52:21;21.60;99.90
50804;DHT22;37205;51.434;6.756;2023-07-30T17:54:50;21.60;99.90
50804;DHT22;37205;51.434;6.756;2023-07-30T17:57:16;21.40;99.90
50804;DHT22;37205;51.434;6.756;2023-07-30T17:59:42;21.40;7.60
50804;DHT22;37205;51.434;6.756;2023-07-30T18:02:07;21.20;1.00
50804;DHT22;37205;51.434;6.756;2023-07-30T18:04:33;21.10;1.00
50804;DHT22;37205;51.434;6.756;2023-07-30T18:07:00;20.90;1.00
50804;DHT22;37205;51.434;6.756;2023-07-30T18:09:25;20.70;99.90
50804;DHT22;37205;51.434;6.756;2023-07-30T18:11:51;20.50;99.90
50804;DHT22;37205;51.434;6.756;2023-07-30T18:14:17;20.30;1.00
50804;DHT22;37205;51.434;6.756;2023-07-30T18:16:42;19.90;1.00
50804;DHT22;37205;51.434;6.756;2023-07-30T18:19:08;19.60;7.10
50804;DHT22;37205;51.434;6.756;2023-07-30T18:21:33;19.40;47.50
50804;DHT22;37205;51.434;6.756;2023-07-30T18:23:59;19.20;80.00
50804;DHT22;37205;51.434;6.756;2023-07-30T18:26:25;18.90;96.30
50804;DHT22;37205;51.434;6.756;2023-07-30T18:28:51;18.80;99.90
50804;DHT22;37205;51.434;6.756;2023-07-30T18:31:17;18.70;99.90
50804;DHT22;37205;51.434;6.756;2023-07-30T18:33:43;18.50;99.90
50804;DHT22;37205;51.434;6.756;2023-07-30T18:36:08;18.50;99.90
50804;DHT22;37205;51.434;6.756;2023-07-30T18:38:34;18.30;99.90
50804;DHT22;37205;51.434;6.756;2023-07-30T18:41:05;18.10;99.90
50804;DHT22;37205;51.434;6.756;2023-07-30T18:43:33;18.00;99.90
50804;DHT22;37205;51.434;6.756;2023-07-30T18:45:58;17.90;99.90
50804;DHT22;37205;51.434;6.756;2023-07-30T18:48:27;17.80;99.90
50804;DHT22;37205;51.434;6.756;2023-07-30T18:50:54;17.80;99.90
50804;DHT22;37205;51.434;6.756;2023-07-30T18:53:19;17.70;99.90
50804;DHT22;37205;51.434;6.756;2023-07-30T18:55:47;17.70;99.90
50804;DHT22;37205;51.434;6.756;2023-07-30T18:58:15;17.60;99.90
50804;DHT22;37205;51.434;6.756;2023-07-30T19:00:40;17.60;99.90
50804;DHT22;37205;51.434;6.756;2023-07-30T19:03:06;17.60;99.90
50804;DHT22;37205;51.434;6.756;2023-07-30T19:05:32;17.50;99.90
50804;DHT22;37205;51.434;6.756;2023-07-30T19:07:57;17.50;99.90
50804;DHT22;37205;51.434;6.756;2023-07-30T19:10:25;17.40;99.90
50804;DHT22;37205;51.434;6.756;2023-07-30T19:12:51;17.40;99.90
50804;DHT22;37205;51.434;6.756;2023-07-30T19:15:17;17.40;99.90
50804;DHT22;37205;51.434;6.756;2023-07-30T19:17:42;17.30;99.90
